Terminal Aerodrome Forecast
Issued by NWS Cleveland, OH

Home | Current Version | Previous Version | Text Only | Print | Product List | Glossary Off
Versions: 1 2 3 4 5 6 7 8 9 10 11 12 13 14 15

000
FTUS41 KCLE 231000 AAA
TAFMFD
TAF AMD
KMFD 231010Z 2310/2406 30008KT P6SM BKN025 OVC035
      TEMPO 2312/2315 SCT025 BKN035
     FM231500 33010G18KT P6SM SKC
     FM232300 01005KT P6SM SCT250
     FM240300 VRB03KT P6SM SCT100 BKN250=

USA.gov is the U.S. government's official web portal to all federal, state and local government web resources and services.